Time;durP1;ratioP1;P1;durP2;ratioP2;P2;SDS_P1;SDS_P2;PMS_P1;PMS_P2;Temp;Humidity;BMP_temperature;BMP_pressure;BME280_temperature;BME280_humidity;BME280_pressure;Samples;Min_cycle;Max_cycle;Signal;HPM_P1;HPM_P2
2022/12/30 00:01:26;;;;;;;3.08;1.60;;;8.40;1.00;;;;;;6220211;23;20186;-86
2022/12/30 00:03:53;;;;;;;4.15;2.10;;;8.10;1.00;;;;;;6224381;23;20314;-86
2022/12/30 00:06:22;;;;;;;2.40;1.43;;;8.20;1.00;;;;;;6225996;23;20171;-86
2022/12/30 00:08:51;;;;;;;8.32;2.00;;;8.20;1.00;;;;;;6232465;23;20403;-86
2022/12/30 00:11:21;;;;;;;2.83;2.00;;;8.20;1.00;;;;;;6244030;23;20158;-88
2022/12/30 00:33:29;;;;;;;1.85;1.55;;;8.40;99.90;;;;;;6232624;23;20167;-87
2022/12/30 00:35:58;;;;;;;8.32;2.20;;;8.30;99.90;;;;;;6232391;23;20237;-86
2022/12/30 00:38:25;;;;;;;2.80;1.87;;;8.60;1.00;;;;;;6232812;23;20246;-87
2022/12/30 00:43:36;;;;;;;5.65;2.83;;;8.30;1.00;;;;;;6233588;23;20374;-87
2022/12/30 00:46:05;;;;;;;6.05;2.28;;;8.20;1.00;;;;;;6233649;23;20176;-87
2022/12/30 00:56:44;;;;;;;3.28;1.63;;;8.10;99.90;;;;;;6244010;23;20261;-86
2022/12/30 00:59:13;;;;;;;7.53;2.30;;;7.80;1.00;;;;;;6239501;23;20203;-88
2022/12/30 01:01:41;;;;;;;2.50;1.70;;;7.90;99.90;;;;;;6234467;23;20395;-87
2022/12/30 01:04:08;;;;;;;7.17;2.50;;;7.90;99.90;;;;;;6233147;23;20408;-87
2022/12/30 01:06:37;;;;;;;1.80;1.67;;;7.90;1.00;;;;;;6233392;23;20744;-87
2022/12/30 01:09:04;;;;;;;5.50;1.43;;;7.80;1.00;;;;;;6234672;23;20430;-86
2022/12/30 01:11:31;;;;;;;2.15;1.83;;;7.80;65.10;;;;;;6237594;23;20416;-87
2022/12/30 01:13:58;;;;;;;3.83;2.17;;;7.90;1.00;;;;;;6239112;23;20175;-87
2022/12/30 01:16:25;;;;;;;4.70;1.70;;;7.60;84.60;;;;;;6236861;23;20447;-88
2022/12/30 01:18:53;;;;;;;3.93;1.97;;;8.00;1.00;;;;;;6238984;23;20401;-87
2022/12/30 01:21:20;;;;;;;6.70;2.78;;;8.00;1.00;;;;;;6243803;23;20398;-87
2022/12/30 01:23:47;;;;;;;5.13;1.77;;;8.10;99.90;;;;;;6241707;23;20179;-87
2022/12/30 01:26:13;;;;;;;5.63;1.60;;;8.10;99.90;;;;;;6240626;23;20183;-86
2022/12/30 01:28:40;;;;;;;2.80;2.17;;;8.00;99.90;;;;;;6241306;23;20442;-86
2022/12/30 01:31:09;;;;;;;3.83;2.33;;;8.00;99.90;;;;;;6239846;23;20163;-85
2022/12/30 01:33:37;;;;;;;5.57;1.50;;;8.00;99.90;;;;;;6236890;23;20178;-86
2022/12/30 01:36:06;;;;;;;4.90;2.07;;;8.90;1.00;;;;;;6236503;23;20438;-86
2022/12/30 01:38:34;;;;;;;5.63;2.05;;;7.90;1.00;;;;;;6237157;23;20466;-88
2022/12/30 01:41:01;;;;;;;4.85;1.60;;;8.00;99.90;;;;;;6235825;23;20186;-88
2022/12/30 01:43:46;;;;;;;4.53;1.90;;;8.10;99.90;;;;;;6236665;23;20179;-86
2022/12/30 01:46:20;;;;;;;4.55;1.88;;;8.10;99.90;;;;;;6235490;23;20191;-87
2022/12/30 01:48:49;;;;;;;2.60;1.45;;;8.10;99.90;;;;;;6235099;23;20274;-87
2022/12/30 01:51:26;;;;;;;4.90;1.57;;;8.00;99.90;;;;;;6237020;23;20537;-87
2022/12/30 01:53:55;;;;;;;2.30;1.80;;;8.00;99.90;;;;;;6235020;23;20385;-86
2022/12/30 01:56:27;;;;;;;2.22;1.60;;;8.00;99.90;;;;;;6236244;23;20449;-86
2022/12/30 01:58:58;;;;;;;5.18;1.63;;;8.00;99.90;;;;;;6235584;23;20203;-87
2022/12/30 02:01:25;;;;;;;2.90;1.50;;;8.10;99.90;;;;;;6234900;23;20163;-88
2022/12/30 02:03:58;;;;;;;2.70;2.27;;;8.10;99.90;;;;;;6235813;23;20401;-87
2022/12/30 02:06:32;;;;;;;4.13;2.13;;;8.10;99.90;;;;;;6237320;23;20361;-85
2022/12/30 02:09:00;;;;;;;4.87;1.73;;;8.10;99.90;;;;;;6244790;23;20489;-86
2022/12/30 02:11:28;;;;;;;3.73;2.50;;;8.10;99.90;;;;;;6241947;23;20430;-88
2022/12/30 02:13:54;;;;;;;5.40;1.80;;;8.10;99.90;;;;;;6235134;23;20786;-87
2022/12/30 02:16:44;;;;;;;3.25;1.90;;;8.10;99.90;;;;;;6234556;23;20195;-87
2022/12/30 02:19:41;;;;;;;6.53;2.58;;;8.10;99.90;;;;;;6235459;23;20210;-86
2022/12/30 02:22:14;;;;;;;2.90;1.80;;;8.00;99.90;;;;;;6238515;23;20190;-86
2022/12/30 02:25:21;;;;;;;2.42;2.05;;;8.00;99.90;;;;;;6229604;23;20465;-87
2022/12/30 02:28:16;;;;;;;5.80;1.80;;;7.90;99.90;;;;;;6227835;23;20206;-86
2022/12/30 02:31:06;;;;;;;6.88;1.65;;;7.90;99.90;;;;;;6235866;23;20457;-86
2022/12/30 02:33:43;;;;;;;5.10;2.05;;;7.90;99.90;;;;;;6245379;23;20168;-85
2022/12/30 02:36:20;;;;;;;2.90;2.70;;;7.90;99.90;;;;;;6244757;23;20206;-85
2022/12/30 02:38:52;;;;;;;5.20;1.90;;;7.90;99.90;;;;;;6245284;23;20407;-85
2022/12/30 02:44:37;;;;;;;5.97;1.95;;;7.90;99.90;;;;;;6245664;23;20446;-85
2022/12/30 02:47:09;;;;;;;2.25;1.90;;;8.00;99.90;;;;;;6227982;23;20179;-86
2022/12/30 02:49:40;;;;;;;1.80;1.70;;;8.00;99.90;;;;;;6240958;23;20191;-86
2022/12/30 02:52:15;;;;;;;3.00;1.43;;;8.00;99.90;;;;;;6239999;23;20191;-88
2022/12/30 02:54:43;;;;;;;2.67;2.37;;;8.00;99.90;;;;;;6240541;23;20389;-86
2022/12/30 02:57:27;;;;;;;3.37;1.70;;;8.40;99.90;;;;;;6237106;23;20474;-88
2022/12/30 03:05:58;;;;;;;1.70;1.60;;;8.00;99.90;;;;;;6237123;23;20390;-87
2022/12/30 03:08:32;;;;;;;6.53;2.40;;;8.30;99.90;;;;;;6243867;23;20215;-85
2022/12/30 03:11:16;;;;;;;2.17;1.70;;;8.00;99.90;;;;;;6244715;23;20399;-88
2022/12/30 03:13:54;;;;;;;5.40;2.17;;;7.90;99.90;;;;;;6244297;23;20183;-86
2022/12/30 03:16:29;;;;;;;5.07;1.80;;;7.80;99.90;;;;;;6242212;23;20437;-89
2022/12/30 03:18:59;;;;;;;4.17;1.60;;;8.50;99.90;;;;;;6244808;23;20434;-85
2022/12/30 03:21:28;;;;;;;5.72;2.17;;;7.50;1.00;;;;;;6244889;23;20364;-86
2022/12/30 03:27:06;;;;;;;3.45;2.05;;;7.50;1.00;;;;;;6245167;23;20146;-85
2022/12/30 03:29:37;;;;;;;8.48;2.30;;;7.50;1.00;;;;;;6239286;23;20203;-86
2022/12/30 03:32:06;;;;;;;9.43;2.20;;;7.40;1.00;;;;;;6233185;23;20163;-86
2022/12/30 03:34:35;;;;;;;4.53;1.60;;;7.30;1.00;;;;;;6233823;23;20433;-86
2022/12/30 03:37:09;;;;;;;4.70;2.30;;;7.30;1.00;;;;;;6233437;23;20277;-87
2022/12/30 03:39:38;;;;;;;5.93;2.65;;;7.30;1.00;;;;;;6233254;23;20223;-87
2022/12/30 03:42:07;;;;;;;3.63;2.05;;;7.20;1.00;;;;;;6233667;23;20203;-87
2022/12/30 03:44:35;;;;;;;2.40;2.00;;;7.40;99.90;;;;;;6233814;23;20189;-86
2022/12/30 03:47:02;;;;;;;4.93;2.00;;;7.20;1.00;;;;;;6236204;23;20182;-87
2022/12/30 03:49:30;;;;;;;9.27;1.90;;;;;;;;;;6242084;22;20289;-84
2022/12/30 03:51:58;;;;;;;4.35;2.30;;;7.20;1.00;;;;;;6258473;23;20265;-84
2022/12/30 03:54:25;;;;;;;7.35;2.20;;;7.20;1.00;;;;;;6259777;23;20198;-84
2022/12/30 03:56:51;;;;;;;3.13;1.83;;;7.30;1.00;;;;;;6258202;23;20195;-85
2022/12/30 03:59:18;;;;;;;8.20;3.15;;;7.30;99.90;;;;;;6250530;23;20230;-85
2022/12/30 04:01:45;;;;;;;4.90;2.70;;;7.40;1.00;;;;;;6227989;23;20194;-84
2022/12/30 04:04:12;;;;;;;4.05;2.30;;;7.40;99.90;;;;;;6228956;23;20186;-84
2022/12/30 04:06:39;;;;;;;3.85;2.90;;;7.40;99.90;;;;;;6228266;23;20203;-85
2022/12/30 04:09:07;;;;;;;4.70;2.45;;;7.40;99.90;;;;;;6228554;23;20207;-83
2022/12/30 04:11:34;;;;;;;9.48;2.33;;;7.60;1.00;;;;;;6228788;23;20545;-85
2022/12/30 04:14:00;;;;;;;6.80;2.22;;;7.30;99.90;;;;;;6227308;23;20258;-84
2022/12/30 04:16:28;;;;;;;4.78;1.73;;;7.20;99.90;;;;;;6228334;23;20215;-84
2022/12/30 04:18:54;;;;;;;4.80;2.13;;;6.80;1.00;;;;;;6228568;23;20572;-83
2022/12/30 04:21:21;;;;;;;5.35;2.40;;;7.00;1.00;;;;;;6228894;23;20706;-84
2022/12/30 04:23:48;;;;;;;12.45;2.95;;;6.90;1.00;;;;;;6228728;23;20246;-83
2022/12/30 04:26:16;;;;;;;5.30;2.47;;;6.70;1.00;;;;;;6231426;23;20198;-83
2022/12/30 04:28:43;;;;;;;2.28;1.58;;;6.80;1.00;;;;;;6232255;23;20187;-83
2022/12/30 04:31:10;;;;;;;2.90;1.90;;;6.80;1.00;;;;;;6237860;23;20191;-83
2022/12/30 04:33:37;;;;;;;2.35;1.50;;;6.70;1.00;;;;;;6243005;23;20163;-83
2022/12/30 04:36:04;;;;;;;3.40;1.80;;;6.50;99.90;;;;;;6242594;23;20235;-83
2022/12/30 04:38:31;;;;;;;3.65;1.70;;;6.70;1.00;;;;;;6231779;23;20186;-84
2022/12/30 04:40:58;;;;;;;4.45;2.00;;;6.70;1.00;;;;;;6228539;23;20696;-84
2022/12/30 04:43:26;;;;;;;5.45;2.78;;;6.60;1.00;;;;;;6229043;23;20202;-84
2022/12/30 04:45:53;;;;;;;4.18;2.05;;;6.60;1.00;;;;;;6231336;23;20203;-84
2022/12/30 04:48:20;;;;;;;4.15;2.40;;;6.60;1.30;;;;;;6230472;23;20175;-84
2022/12/30 04:50:48;;;;;;;5.35;1.90;;;6.90;99.90;;;;;;6227874;23;20214;-84
2022/12/30 04:53:15;;;;;;;3.10;1.90;;;6.60;1.00;;;;;;6228246;23;20210;-84
2022/12/30 04:55:42;;;;;;;3.42;1.95;;;6.60;1.00;;;;;;6233732;23;20214;-84
2022/12/30 04:58:09;;;;;;;6.85;2.10;;;6.60;53.80;;;;;;6230270;23;20231;-84
2022/12/30 05:00:37;;;;;;;2.67;1.80;;;6.80;99.90;;;;;;6229617;23;20278;-84
2022/12/30 05:03:04;;;;;;;5.63;2.10;;;6.70;1.00;;;;;;6229163;23;20235;-84
2022/12/30 05:05:31;;;;;;;9.05;2.15;;;6.70;1.00;;;;;;6239286;23;20179;-83
2022/12/30 05:07:58;;;;;;;6.20;1.98;;;;;;;;;;6241394;23;20179;-83
2022/12/30 05:10:25;;;;;;;3.13;2.08;;;6.60;1.00;;;;;;6231299;23;20253;-84
2022/12/30 05:12:51;;;;;;;4.25;2.22;;;6.60;89.10;;;;;;6228605;23;20229;-84
2022/12/30 05:15:18;;;;;;;2.50;2.03;;;6.60;99.90;;;;;;6228405;23;20187;-84
2022/12/30 05:17:46;;;;;;;8.95;4.65;;;6.60;47.50;;;;;;6228373;23;20560;-84
2022/12/30 05:20:13;;;;;;;3.60;2.15;;;6.60;99.90;;;;;;6229761;23;20536;-84
2022/12/30 05:22:40;;;;;;;3.05;1.73;;;6.70;99.90;;;;;;6231671;23;20254;-84
2022/12/30 05:27:54;;;;;;;3.97;1.83;;;6.50;99.90;;;;;;6193532;23;20195;-84
2022/12/30 05:30:21;;;;;;;4.25;2.05;;;6.50;68.40;;;;;;6229699;23;20241;-84
2022/12/30 05:32:50;;;;;;;2.92;1.95;;;6.40;61.50;;;;;;6228336;23;20206;-84
2022/12/30 05:35:17;;;;;;;3.60;1.50;;;6.40;99.90;;;;;;6228424;23;20210;-84
2022/12/30 05:37:44;;;;;;;6.30;1.80;;;6.40;96.20;;;;;;6227582;23;20222;-84
2022/12/30 05:40:12;;;;;;;3.08;2.00;;;6.40;99.90;;;;;;6230874;23;20714;-84
2022/12/30 05:42:40;;;;;;;5.38;2.45;;;6.40;99.90;;;;;;6225790;23;20258;-83
2022/12/30 05:45:09;;;;;;;5.35;1.90;;;6.40;99.90;;;;;;6222474;23;20231;-84
2022/12/30 05:47:36;;;;;;;6.72;2.13;;;6.30;99.90;;;;;;6222746;23;20199;-84
2022/12/30 05:50:05;;;;;;;3.13;1.80;;;6.30;99.90;;;;;;6223616;23;20242;-84
2022/12/30 05:52:32;;;;;;;5.60;2.22;;;6.30;99.90;;;;;;6224039;23;20192;-83
2022/12/30 05:54:59;;;;;;;11.43;3.45;;;5.90;1.00;;;;;;6224420;23;20203;-84
2022/12/30 05:57:26;;;;;;;7.60;1.75;;;6.20;99.90;;;;;;6223743;23;20269;-83
2022/12/30 05:59:52;;;;;;;8.88;2.38;;;6.40;1.00;;;;;;6224917;23;20201;-83
2022/12/30 06:02:19;;;;;;;7.05;2.65;;;6.20;99.90;;;;;;6227882;23;20516;-83
2022/12/30 06:04:46;;;;;;;7.95;2.17;;;6.20;99.90;;;;;;6229037;23;20542;-83
2022/12/30 06:07:14;;;;;;;2.65;2.40;;;6.20;99.90;;;;;;6239753;23;20194;-83
2022/12/30 06:09:41;;;;;;;4.88;2.33;;;6.50;1.00;;;;;;6244437;23;20187;-82
2022/12/30 06:12:08;;;;;;;5.63;2.03;;;;;;;;;;6244624;23;20219;-83
2022/12/30 06:14:35;;;;;;;8.07;1.95;;;6.20;99.90;;;;;;6233773;23;20167;-83
2022/12/30 06:17:02;;;;;;;5.53;2.10;;;6.40;1.00;;;;;;6227131;23;20536;-83
2022/12/30 06:19:29;;;;;;;3.53;1.75;;;6.10;1.00;;;;;;6229102;23;20225;-83
2022/12/30 06:21:55;;;;;;;2.70;2.28;;;6.00;1.00;;;;;;6227834;23;20259;-85
2022/12/30 06:24:24;;;;;;;4.07;2.13;;;5.80;99.90;;;;;;6227278;23;20207;-83
2022/12/30 06:26:50;;;;;;;4.82;2.03;;;6.00;1.00;;;;;;6228279;23;20206;-85
2022/12/30 06:29:17;;;;;;;8.45;3.05;;;6.00;1.00;;;;;;6229392;23;20199;-83
2022/12/30 06:31:44;;;;;;;7.20;2.03;;;5.80;99.90;;;;;;6228128;23;20210;-83
2022/12/30 06:34:11;;;;;;;3.33;1.80;;;6.00;1.00;;;;;;6227801;23;20258;-84
2022/12/30 06:36:38;;;;;;;3.50;2.15;;;6.00;99.90;;;;;;6228599;23;20232;-83
2022/12/30 06:39:05;;;;;;;3.90;1.60;;;5.60;99.90;;;;;;6228145;23;20210;-83
2022/12/30 06:41:33;;;;;;;4.95;2.85;;;5.90;99.90;;;;;;6242864;23;20166;-82
2022/12/30 06:44:00;;;;;;;3.63;2.08;;;5.90;1.00;;;;;;6239297;23;20628;-84
2022/12/30 06:46:27;;;;;;;8.07;2.78;;;6.00;1.00;;;;;;6222459;23;20203;-83
2022/12/30 06:48:54;;;;;;;3.75;2.13;;;5.50;1.00;;;;;;6232919;23;20176;-83
2022/12/30 06:51:20;;;;;;;5.32;2.30;;;5.80;1.00;;;;;;6233065;23;20164;-84
2022/12/30 06:53:47;;;;;;;5.13;2.03;;;5.80;1.00;;;;;;6234776;23;20176;-83
2022/12/30 06:56:14;;;;;;;9.80;2.90;;;5.70;1.00;;;;;;6232422;23;20179;-83
2022/12/30 06:58:42;;;;;;;3.45;1.88;;;5.70;1.00;;;;;;6222249;23;20298;-83
2022/12/30 07:01:09;;;;;;;10.40;2.20;;;5.70;1.00;;;;;;6219076;23;20710;-83
2022/12/30 07:03:36;;;;;;;6.30;2.25;;;5.60;59.70;;;;;;6220899;23;20181;-83
2022/12/30 07:06:03;;;;;;;8.32;2.85;;;5.60;99.90;;;;;;6222398;23;20186;-83
2022/12/30 07:08:30;;;;;;;7.97;4.40;;;5.60;63.00;;;;;;6221978;23;20273;-83
2022/12/30 07:10:57;;;;;;;4.28;1.83;;;5.60;99.90;;;;;;6223037;23;20286;-83
2022/12/30 07:13:25;;;;;;;4.93;2.22;;;5.60;83.60;;;;;;6222620;23;20262;-84
2022/12/30 07:15:54;;;;;;;4.57;2.10;;;5.40;99.90;;;;;;6221781;23;20182;-83
2022/12/30 07:18:21;;;;;;;3.20;1.92;;;5.60;1.00;;;;;;6224376;23;20251;-83
2022/12/30 07:20:48;;;;;;;5.65;2.30;;;5.60;1.00;;;;;;6227571;23;20199;-83
2022/12/30 07:23:15;;;;;;;5.53;2.00;;;5.60;1.00;;;;;;6230036;23;20318;-83
2022/12/30 07:25:42;;;;;;;6.53;2.17;;;5.50;99.30;;;;;;6226805;23;20254;-84
2022/12/30 07:28:09;;;;;;;6.13;2.22;;;5.50;99.90;;;;;;6221343;23;20258;-83
2022/12/30 07:30:37;;;;;;;13.95;2.53;;;5.50;99.90;;;;;;6219933;23;20287;-84
2022/12/30 07:33:05;;;;;;;5.10;2.58;;;5.40;99.90;;;;;;6227513;23;20195;-84
2022/12/30 07:35:32;;;;;;;10.55;3.83;;;5.90;99.90;;;;;;6236442;23;20171;-83
2022/12/30 07:37:58;;;;;;;2.47;2.03;;;5.40;1.00;;;;;;6237493;23;20282;-83
2022/12/30 07:40:25;;;;;;;13.30;2.72;;;5.40;1.00;;;;;;6236542;23;20206;-82
2022/12/30 07:42:52;;;;;;;3.97;2.53;;;5.10;1.00;;;;;;6237501;23;20203;-82
2022/12/30 07:45:19;;;;;;;6.43;2.35;;;5.40;1.00;;;;;;6238541;23;20183;-83
2022/12/30 07:47:46;;;;;;;10.60;2.75;;;5.30;1.00;;;;;;6238710;23;20186;-83
2022/12/30 07:50:14;;;;;;;5.00;2.90;;;5.50;99.90;;;;;;6238164;23;20207;-83
2022/12/30 07:52:41;;;;;;;8.68;2.60;;;5.30;1.00;;;;;;6239298;23;20163;-83
2022/12/30 07:55:12;;;;;;;6.32;3.03;;;5.70;99.90;;;;;;6238751;23;20240;-83
2022/12/30 07:57:38;;;;;;;5.45;3.10;;;5.30;80.90;;;;;;6238626;23;20187;-82
2022/12/30 08:00:09;;;;;;;7.18;2.92;;;5.40;99.90;;;;;;6239365;23;20199;-83
2022/12/30 08:02:36;;;;;;;9.73;3.13;;;5.40;99.90;;;;;;6239654;23;20215;-83
2022/12/30 08:05:03;;;;;;;4.63;2.53;;;5.40;99.90;;;;;;6238572;23;20547;-83
2022/12/30 08:07:31;;;;;;;5.72;2.95;;;5.50;99.90;;;;;;6238388;23;20175;-83
2022/12/30 08:09:58;;;;;;;5.60;2.85;;;5.30;96.20;;;;;;6236151;23;20217;-83
2022/12/30 08:12:25;;;;;;;8.35;3.65;;;5.30;99.90;;;;;;6234931;23;20179;-84
2022/12/30 08:14:52;;;;;;;9.68;3.25;;;5.30;99.90;;;;;;6238190;23;20178;-82
2022/12/30 08:17:19;;;;;;;3.80;2.38;;;5.10;99.90;;;;;;6240862;23;20206;-82
2022/12/30 08:19:46;;;;;;;7.03;3.22;;;5.50;99.90;;;;;;6240007;23;20192;-83
2022/12/30 08:22:13;;;;;;;3.50;3.03;;;5.40;99.90;;;;;;6236579;23;20217;-83
2022/12/30 08:24:41;;;;;;;7.63;3.35;;;5.40;1.00;;;;;;6237903;23;20230;-83
2022/12/30 08:27:08;;;;;;;4.47;3.10;;;5.30;2.10;;;;;;6237243;23;20226;-83
2022/12/30 08:29:50;;;;;;;8.77;3.30;;;5.40;11.90;;;;;;6236229;23;20199;-83
2022/12/30 08:32:18;;;;;;;13.00;4.40;;;;;;;;;;6238135;23;20167;-83
2022/12/30 08:34:54;;;;;;;7.68;3.20;;;5.50;1.00;;;;;;6232193;23;20214;-83
2022/12/30 08:37:21;;;;;;;8.15;3.63;;;;;;;;;;6234137;23;20181;-82
2022/12/30 08:39:50;;;;;;;8.32;3.00;;;5.50;1.00;;;;;;6240940;23;20324;-82
2022/12/30 08:42:18;;;;;;;3.67;2.60;;;5.80;99.90;;;;;;6242050;23;20183;-82
2022/12/30 08:44:45;;;;;;;3.15;2.83;;;5.50;1.00;;;;;;6239807;23;20175;-83
2022/12/30 08:47:11;;;;;;;7.05;2.80;;;5.50;1.00;;;;;;6237089;23;20197;-83
2022/12/30 08:49:39;;;;;;;9.20;2.35;;;;;;;;;;6237124;23;20210;-83
2022/12/30 08:52:05;;;;;;;5.70;2.95;;;5.60;99.90;;;;;;6234668;23;20179;-84
2022/12/30 08:54:32;;;;;;;8.75;3.30;;;5.70;99.90;;;;;;6230357;23;20574;-83
2022/12/30 08:57:00;;;;;;;13.02;3.03;;;5.70;99.90;;;;;;6232516;23;20179;-84
2022/12/30 08:59:27;;;;;;;11.25;2.60;;;5.80;1.00;;;;;;6230433;23;20202;-84
2022/12/30 09:01:54;;;;;;;5.45;2.15;;;5.80;1.00;;;;;;6229914;23;20202;-84
2022/12/30 09:04:21;;;;;;;4.15;3.17;;;5.90;73.70;;;;;;6231620;23;20184;-85
2022/12/30 09:06:48;;;;;;;3.80;2.33;;;6.30;1.00;;;;;;6232270;23;20235;-84
2022/12/30 09:09:15;;;;;;;4.63;2.40;;;5.90;1.00;;;;;;6231542;23;20195;-85
2022/12/30 09:11:44;;;;;;;7.00;2.25;;;5.80;1.00;;;;;;6230071;23;20180;-85
2022/12/30 09:14:14;;;;;;;7.90;2.90;;;6.10;99.90;;;;;;6229765;23;20179;-84
2022/12/30 09:16:41;;;;;;;6.50;2.47;;;6.20;99.90;;;;;;6229400;23;20242;-84
2022/12/30 09:19:08;;;;;;;6.68;2.50;;;;;;;;;;6228349;23;20221;-84
2022/12/30 09:21:36;;;;;;;10.10;2.72;;;6.20;99.90;;;;;;6229463;23;20254;-84
2022/12/30 09:24:03;;;;;;;10.07;1.90;;;6.30;99.90;;;;;;6229018;23;20207;-83
2022/12/30 09:26:30;;;;;;;5.40;2.63;;;6.30;99.90;;;;;;6229747;23;20186;-83
2022/12/30 09:28:58;;;;;;;8.13;1.90;;;6.40;99.90;;;;;;6228307;23;20175;-83
2022/12/30 09:31:27;;;;;;;4.30;2.08;;;6.50;1.00;;;;;;6234402;23;20202;-84
2022/12/30 09:33:54;;;;;;;6.90;2.15;;;6.50;94.90;;;;;;6231434;23;20179;-84
2022/12/30 09:36:23;;;;;;;2.28;2.03;;;6.50;1.00;;;;;;6234708;23;20183;-83
2022/12/30 09:38:50;;;;;;;6.47;2.17;;;6.30;90.90;;;;;;6231513;23;20191;-84
2022/12/30 09:43:15;;;;;;;3.63;2.03;;;6.60;1.00;;;;;;6234197;23;20179;-84
2022/12/30 09:44:25;;;;;;;6.80;2.65;;;6.50;64.60;;;;;;6233873;23;20624;-84
2022/12/30 09:47:03;;;;;;;5.07;2.08;;;6.90;41.60;;;;;;6231829;23;20158;-85
2022/12/30 09:52:16;;;;;;;2.60;1.75;;;6.80;1.00;;;;;;6254669;23;20178;-83
2022/12/30 09:54:49;;;;;;;2.45;2.20;;;7.00;1.00;;;;;;6255417;22;20554;-82
2022/12/30 09:57:32;;;;;;;5.38;2.60;;;7.20;1.00;;;;;;6258054;22;20254;-82
2022/12/30 10:00:03;;;;;;;5.88;3.20;;;6.90;1.00;;;;;;6247862;22;20274;-82
2022/12/30 10:02:40;;;;;;;6.93;3.05;;;6.70;1.00;;;;;;6222685;23;20611;-84
2022/12/30 10:05:13;;;;;;;6.47;2.25;;;7.00;99.90;;;;;;6224100;23;20163;-83
2022/12/30 10:07:48;;;;;;;7.90;2.58;;;7.10;99.90;;;;;;6224711;23;20195;-84
2022/12/30 10:10:19;;;;;;;4.47;2.53;;;7.20;99.90;;;;;;6244737;23;20209;-82
2022/12/30 10:12:56;;;;;;;10.55;3.95;;;7.20;99.90;;;;;;6245755;23;20593;-82
2022/12/30 10:15:46;;;;;;;18.80;12.85;;;7.20;99.90;;;;;;6245735;23;20203;-82
2022/12/30 10:18:38;;;;;;;6.45;3.10;;;7.50;1.00;;;;;;6237303;23;20203;-82
2022/12/30 10:21:21;;;;;;;7.13;3.47;;;7.30;99.90;;;;;;6229903;23;20196;-83
2022/12/30 10:24:01;;;;;;;10.90;5.75;;;7.40;99.90;;;;;;6227510;23;20609;-83
2022/12/30 10:26:37;;;;;;;8.20;3.20;;;7.40;99.90;;;;;;6232609;23;20170;-83
2022/12/30 10:29:10;;;;;;;10.77;4.30;;;7.40;99.90;;;;;;6227217;23;20580;-83
2022/12/30 10:31:38;;;;;;;15.25;3.80;;;7.40;99.90;;;;;;6227423;23;20170;-82
2022/12/30 10:34:13;;;;;;;4.80;2.33;;;7.50;99.90;;;;;;6228096;23;20175;-85
2022/12/30 10:36:45;;;;;;;4.65;2.10;;;7.50;99.90;;;;;;6226113;23;20163;-83
2022/12/30 10:39:17;;;;;;;4.80;2.00;;;7.40;99.90;;;;;;6226389;23;20183;-84
2022/12/30 10:41:59;;;;;;;6.85;2.40;;;7.60;99.90;;;;;;6223960;23;20187;-82
2022/12/30 10:44:31;;;;;;;7.70;3.08;;;7.60;1.00;;;;;;6230519;23;20186;-83
2022/12/30 10:47:22;;;;;;;11.02;4.35;;;7.70;99.90;;;;;;6234601;23;20164;-83
2022/12/30 10:50:07;;;;;;;7.00;2.50;;;7.80;99.90;;;;;;6223987;23;20221;-83
2022/12/30 10:52:34;;;;;;;6.93;2.17;;;7.80;99.90;;;;;;6224157;23;20163;-84
2022/12/30 10:55:03;;;;;;;7.13;2.17;;;7.80;99.90;;;;;;6223353;23;20185;-82
2022/12/30 10:57:35;;;;;;;4.93;2.40;;;7.90;1.00;;;;;;6223896;23;20179;-83
2022/12/30 11:00:03;;;;;;;5.27;2.63;;;8.20;99.90;;;;;;6222814;23;20282;-84
2022/12/30 11:02:36;;;;;;;6.28;3.00;;;7.90;99.90;;;;;;6223553;23;20411;-84
2022/12/30 11:05:29;;;;;;;6.53;2.87;;;8.00;99.90;;;;;;6223769;23;20223;-84
2022/12/30 11:07:58;;;;;;;9.30;4.35;;;8.00;99.90;;;;;;6226721;23;20788;-83
2022/12/30 11:10:25;;;;;;;9.77;3.55;;;8.00;99.90;;;;;;6225126;23;20199;-85
2022/12/30 11:15:53;;;;;;;4.65;2.20;;;8.10;99.90;;;;;;6225706;23;20158;-84
2022/12/30 11:18:25;;;;;;;7.07;2.80;;;8.20;97.20;;;;;;6227021;23;20472;-83
2022/12/30 11:20:55;;;;;;;5.03;2.97;;;8.20;91.30;;;;;;6225889;23;20456;-84
2022/12/30 11:23:27;;;;;;;5.70;2.45;;;8.30;52.60;;;;;;6222985;23;20373;-83
2022/12/30 11:25:54;;;;;;;8.40;3.10;;;8.30;35.70;;;;;;6223332;23;20224;-84
2022/12/30 11:28:24;;;;;;;9.27;3.63;;;8.40;94.10;;;;;;6241395;23;20419;-83
2022/12/30 11:30:58;;;;;;;10.83;3.60;;;8.20;99.90;;;;;;6243486;23;20236;-80
2022/12/30 11:33:28;;;;;;;6.70;2.63;;;8.40;30.90;;;;;;6242856;23;20382;-83
2022/12/30 11:36:12;;;;;;;3.70;2.77;;;8.50;26.20;;;;;;6243265;23;20399;-82
2022/12/30 11:38:41;;;;;;;7.27;2.80;;;8.20;99.90;;;;;;6243944;23;20413;-82
2022/12/30 11:41:27;;;;;;;6.07;2.10;;;8.50;18.20;;;;;;6235792;23;20462;-84
2022/12/30 11:44:23;;;;;;;5.47;2.10;;;8.50;27.40;;;;;;6235932;23;20421;-81
2022/12/30 11:46:52;;;;;;;4.73;2.87;;;8.50;1.00;;;;;;6192685;23;20403;-83
2022/12/30 11:49:26;;;;;;;7.73;4.20;;;8.60;99.90;;;;;;6242670;23;20430;-82
2022/12/30 11:51:57;;;;;;;7.97;3.20;;;8.50;1.00;;;;;;6243466;23;20410;-82
2022/12/30 11:54:26;;;;;;;25.33;10.60;;;8.40;1.00;;;;;;6244016;23;20462;-82
2022/12/30 11:56:55;;;;;;;6.23;3.10;;;8.50;1.00;;;;;;6244370;23;20388;-81
2022/12/30 11:59:25;;;;;;;6.10;3.03;;;8.20;99.90;;;;;;6243169;23;20429;-81
2022/12/30 12:01:56;;;;;;;5.63;2.17;;;8.50;1.00;;;;;;6242409;23;20407;-83
2022/12/30 12:04:32;;;;;;;4.77;2.20;;;8.60;1.00;;;;;;6227997;23;20373;-84
2022/12/30 12:07:01;;;;;;;6.50;2.63;;;8.60;1.00;;;;;;6224458;23;20477;-84
2022/12/30 12:09:34;;;;;;;7.10;3.60;;;8.60;1.00;;;;;;6223323;23;20494;-84
2022/12/30 12:12:05;;;;;;;5.43;2.50;;;8.70;1.00;;;;;;6223673;23;20742;-85
2022/12/30 12:14:37;;;;;;;6.40;3.13;;;8.70;1.00;;;;;;6224002;23;20477;-84
2022/12/30 12:17:13;;;;;;;6.30;3.50;;;8.90;99.90;;;;;;6223157;23;20422;-85
2022/12/30 12:19:45;;;;;;;5.27;2.10;;;8.70;1.00;;;;;;6224618;23;20525;-84
2022/12/30 12:22:19;;;;;;;8.90;2.70;;;8.70;1.00;;;;;;6227325;23;20889;-85
2022/12/30 12:24:54;;;;;;;6.10;2.80;;;8.60;1.00;;;;;;6235605;23;20417;-83
2022/12/30 12:27:21;;;;;;;8.10;2.73;;;9.20;99.90;;;;;;6240413;23;20353;-83
2022/12/30 12:29:48;;;;;;;18.93;4.73;;;8.90;99.90;;;;;;6235871;23;20465;-81
2022/12/30 12:32:34;;;;;;;9.47;2.77;;;8.70;1.00;;;;;;6229689;23;20405;-84
2022/12/30 12:35:11;;;;;;;6.47;2.87;;;8.70;1.00;;;;;;6223847;23;20373;-84
2022/12/30 12:37:50;;;;;;;5.83;3.33;;;8.70;1.00;;;;;;6223207;23;20432;-84
2022/12/30 12:40:36;;;;;;;7.40;3.27;;;8.70;1.00;;;;;;6223593;23;20453;-83
2022/12/30 12:43:15;;;;;;;8.13;2.67;;;8.70;1.00;;;;;;6223893;23;20883;-83
2022/12/30 12:46:07;;;;;;;6.63;2.60;;;8.70;1.00;;;;;;6223573;23;20885;-84
2022/12/30 12:48:49;;;;;;;7.53;2.73;;;8.80;1.00;;;;;;6223143;23;20848;-84
2022/12/30 12:51:31;;;;;;;9.03;3.17;;;8.80;1.00;;;;;;6223010;23;20779;-84
2022/12/30 12:54:30;;;;;;;7.80;3.07;;;8.80;1.00;;;;;;6222116;23;20446;-84
2022/12/30 12:57:05;;;;;;;9.83;4.70;;;8.80;1.00;;;;;;6226400;23;20410;-83
2022/12/30 12:59:53;;;;;;;9.27;3.77;;;8.80;1.00;;;;;;6224211;23;20445;-84
2022/12/30 13:02:50;;;;;;;9.67;3.70;;;8.80;1.00;;;;;;6223662;23;20391;-84
2022/12/30 13:05:22;;;;;;;5.47;3.17;;;8.90;1.00;;;;;;6232669;23;20887;-82
2022/12/30 13:07:57;;;;;;;5.67;3.40;;;8.90;1.00;;;;;;6233072;23;20457;-83
2022/12/30 13:10:37;;;;;;;5.70;2.20;;;8.90;8.90;;;;;;6236888;23;20421;-82
2022/12/30 13:13:11;;;;;;;6.40;3.07;;;8.80;1.00;;;;;;6231840;23;20394;-84
2022/12/30 13:15:41;;;;;;;10.80;2.90;;;8.90;99.90;;;;;;6223888;23;20394;-82
2022/12/30 13:18:15;;;;;;;3.50;2.33;;;8.80;14.40;;;;;;6229315;23;20679;-82
2022/12/30 13:20:47;;;;;;;8.70;3.30;;;8.80;99.90;;;;;;6221302;23;20481;-83
2022/12/30 13:23:17;;;;;;;5.73;2.57;;;9.00;99.90;;;;;;6223353;23;20456;-82
2022/12/30 13:25:50;;;;;;;8.93;4.50;;;8.80;17.00;;;;;;6222200;23;20406;-84
2022/12/30 13:28:21;;;;;;;6.43;3.07;;;8.80;31.20;;;;;;6223133;23;20404;-84
2022/12/30 13:30:57;;;;;;;2.90;2.20;;;8.70;15.00;;;;;;6223577;23;20461;-84
2022/12/30 13:33:32;;;;;;;10.43;4.27;;;8.70;24.70;;;;;;6224520;23;20451;-83
2022/12/30 13:36:05;;;;;;;4.53;3.60;;;8.70;24.40;;;;;;6231498;23;20361;-84
2022/12/30 13:38:46;;;;;;;7.30;4.33;;;8.60;24.70;;;;;;6221956;23;20390;-83
2022/12/30 13:41:41;;;;;;;9.00;3.37;;;8.70;20.30;;;;;;6236450;23;20487;-82
2022/12/30 13:44:15;;;;;;;8.20;5.60;;;8.60;40.90;;;;;;6239816;23;20407;-83
2022/12/30 13:46:49;;;;;;;15.40;6.20;;;8.60;37.70;;;;;;6239520;23;20386;-83
2022/12/30 13:49:24;;;;;;;9.90;5.50;;;8.90;99.90;;;;;;6229047;23;20421;-83
2022/12/30 13:51:58;;;;;;;16.77;9.53;;;8.80;99.90;;;;;;6231345;23;20452;-84
2022/12/30 13:54:26;;;;;;;13.83;6.90;;;8.50;59.80;;;;;;6228618;23;20369;-84
2022/12/30 13:56:58;;;;;;;19.33;8.37;;;8.50;99.00;;;;;;6225489;23;20434;-84
2022/12/30 13:59:29;;;;;;;14.83;8.30;;;8.80;99.90;;;;;;6226183;23;20426;-83
2022/12/30 14:02:33;;;;;;;15.90;8.60;;;8.40;99.90;;;;;;6229138;23;20385;-81
2022/12/30 14:05:01;;;;;;;10.10;6.00;;;8.50;99.90;;;;;;6236831;23;20441;-82
2022/12/30 14:07:47;;;;;;;31.97;12.90;;;8.40;99.90;;;;;;6225948;23;20391;-81
2022/12/30 14:10:49;;;;;;;13.47;6.77;;;8.50;99.90;;;;;;6223722;23;20400;-84
2022/12/30 14:13:34;;;;;;;17.67;9.87;;;8.40;99.10;;;;;;6223525;23;20405;-83
2022/12/30 14:16:32;;;;;;;19.43;8.90;;;8.40;99.90;;;;;;6224612;23;20361;-84